PVL902 CYKF-CYXU
Flight info
| Callsign | PVL902 |
|---|---|
| Flight time | 0h 24m |
| Altitude | 10000 |
| Route | DERLO |
| Aircraft | DH8D/M-SDE2E3FGRY/H |
Departure
| Time | 2026-04-25 00:52 |
|---|---|
| Airport | Region of Waterloo International Airport (CYKF) |
Arrival
| Time | 2026-04-25 01:17 |
|---|---|
| Airport | London International Airport (CYXU) |
| Time | Latitude | Longitude | Altitude | Speed | Heading |
|---|---|---|---|---|---|
| 2026-04-25 00:42 | 43.45691 | -80.38617 | 1034 ft | 0 kts | 212° |
| 2026-04-25 00:49 | 43.45688 | -80.38622 | 1034 ft | 4 kts | 244° |
| 2026-04-25 00:49 | 43.45751 | -80.38596 | 1034 ft | 19 kts | 49° |
| 2026-04-25 00:50 | 43.45787 | -80.38505 | 1034 ft | 0 kts | 67° |
| 2026-04-25 00:50 | 43.45787 | -80.38504 | 1034 ft | 0 kts | 67° |
| 2026-04-25 00:50 | 43.45787 | -80.38503 | 1034 ft | 0 kts | 67° |
| 2026-04-25 00:50 | 43.45793 | -80.38501 | 1034 ft | 9 kts | 237° |
| 2026-04-25 00:51 | 43.45729 | -80.38673 | 1034 ft | 21 kts | 245° |
| 2026-04-25 00:51 | 43.45681 | -80.38821 | 1031 ft | 18 kts | 243° |
| 2026-04-25 00:51 | 43.45705 | -80.38897 | 1030 ft | 0 kts | 326° |
| 2026-04-25 00:51 | 43.45721 | -80.38910 | 1030 ft | 13 kts | 333° |
| 2026-04-25 00:52 | 43.45824 | -80.38873 | 1033 ft | 8 kts | 59° |
| 2026-04-25 00:52 | 43.45975 | -80.38425 | 1043 ft | 102 kts | 69° |
| 2026-04-25 00:52 | 43.46333 | -80.37327 | 1596 ft | 138 kts | 67° |
| 2026-04-25 00:52 | 43.46744 | -80.36210 | 2637 ft | 138 kts | 68° |
| 2026-04-25 00:53 | 43.47223 | -80.34959 | 3344 ft | 163 kts | 67° |
| 2026-04-25 00:53 | 43.47762 | -80.33529 | 4187 ft | 175 kts | 66° |
| 2026-04-25 00:53 | 43.48270 | -80.32105 | 5322 ft | 169 kts | 66° |
| 2026-04-25 00:53 | 43.48765 | -80.30618 | 6147 ft | 185 kts | 67° |
| 2026-04-25 00:54 | 43.49293 | -80.28951 | 6971 ft | 198 kts | 67° |
| 2026-04-25 00:54 | 43.49799 | -80.27291 | 8165 ft | 189 kts | 67° |
| 2026-04-25 00:54 | 43.49889 | -80.25497 | 8923 ft | 209 kts | 103° |
| 2026-04-25 00:54 | 43.48921 | -80.23828 | 9296 ft | 236 kts | 150° |
| 2026-04-25 00:55 | 43.47457 | -80.23677 | 10513 ft | 209 kts | 201° |
| 2026-04-25 00:55 | 43.46406 | -80.24769 | 11791 ft | 186 kts | 229° |
| 2026-04-25 00:55 | 43.45531 | -80.26024 | 12691 ft | 193 kts | 232° |
| 2026-04-25 00:55 | 43.44545 | -80.27570 | 12323 ft | 229 kts | 233° |
| 2026-04-25 00:56 | 43.43538 | -80.29299 | 11567 ft | 237 kts | 235° |
| 2026-04-25 00:56 | 43.42567 | -80.31110 | 10983 ft | 237 kts | 237° |
| 2026-04-25 00:56 | 43.41613 | -80.32973 | 10412 ft | 236 kts | 238° |
| 2026-04-25 00:56 | 43.40731 | -80.34839 | 9838 ft | 234 kts | 243° |
| 2026-04-25 00:57 | 43.40071 | -80.36826 | 9276 ft | 230 kts | 249° |
| 2026-04-25 00:57 | 43.39469 | -80.38857 | 8699 ft | 229 kts | 249° |
| 2026-04-25 00:57 | 43.38882 | -80.40855 | 8130 ft | 228 kts | 249° |
| 2026-04-25 00:57 | 43.38289 | -80.42872 | 7554 ft | 227 kts | 249° |
| 2026-04-25 00:58 | 43.37704 | -80.44855 | 6981 ft | 226 kts | 249° |
| 2026-04-25 00:58 | 43.37112 | -80.46863 | 6399 ft | 225 kts | 248° |
| 2026-04-25 00:58 | 43.36527 | -80.48841 | 5812 ft | 225 kts | 248° |
| 2026-04-25 00:58 | 43.35950 | -80.50794 | 5235 ft | 225 kts | 247° |
| 2026-04-25 00:59 | 43.35359 | -80.52789 | 4643 ft | 225 kts | 246° |
| 2026-04-25 00:59 | 43.34774 | -80.54764 | 4201 ft | 219 kts | 246° |
| 2026-04-25 00:59 | 43.34227 | -80.56609 | 4043 ft | 201 kts | 246° |
| 2026-04-25 00:59 | 43.33734 | -80.58274 | 3977 ft | 177 kts | 245° |
| 2026-04-25 01:00 | 43.33305 | -80.59724 | 3933 ft | 149 kts | 244° |
| 2026-04-25 01:00 | 43.32903 | -80.61089 | 4048 ft | 175 kts | 245° |
| 2026-04-25 01:00 | 43.32371 | -80.62882 | 4021 ft | 228 kts | 245° |
| 2026-04-25 01:00 | 43.31722 | -80.65063 | 3996 ft | 263 kts | 245° |
| 2026-04-25 01:01 | 43.31020 | -80.67431 | 3954 ft | 264 kts | 246° |
| 2026-04-25 01:01 | 43.30353 | -80.69677 | 3936 ft | 241 kts | 245° |
| 2026-04-25 01:01 | 43.29749 | -80.71709 | 3931 ft | 223 kts | 245° |
| 2026-04-25 01:01 | 43.29181 | -80.73614 | 3932 ft | 207 kts | 245° |
| 2026-04-25 01:02 | 43.28657 | -80.75371 | 3936 ft | 194 kts | 245° |
| 2026-04-25 01:02 | 43.28160 | -80.77039 | 3933 ft | 181 kts | 245° |
| 2026-04-25 01:02 | 43.27703 | -80.78567 | 3931 ft | 168 kts | 244° |
| 2026-04-25 01:02 | 43.27280 | -80.79984 | 3922 ft | 154 kts | 244° |
| 2026-04-25 01:03 | 43.26884 | -80.81309 | 3933 ft | 151 kts | 244° |
| 2026-04-25 01:03 | 43.26464 | -80.82701 | 3946 ft | 161 kts | 244° |
| 2026-04-25 01:03 | 43.26026 | -80.84150 | 3952 ft | 170 kts | 244° |
| 2026-04-25 01:03 | 43.25559 | -80.85699 | 3956 ft | 180 kts | 244° |
| 2026-04-25 01:04 | 43.25070 | -80.87322 | 3955 ft | 189 kts | 244° |
| 2026-04-25 01:04 | 43.24559 | -80.89017 | 3955 ft | 196 kts | 245° |
| 2026-04-25 01:04 | 43.24027 | -80.90784 | 3950 ft | 204 kts | 245° |
| 2026-04-25 01:04 | 43.23481 | -80.92596 | 3950 ft | 210 kts | 245° |
| 2026-04-25 01:05 | 43.22917 | -80.94465 | 3947 ft | 214 kts | 245° |
| 2026-04-25 01:05 | 43.22349 | -80.96346 | 3944 ft | 218 kts | 245° |
| 2026-04-25 01:05 | 43.21759 | -80.98304 | 3949 ft | 221 kts | 245° |
| 2026-04-25 01:05 | 43.21169 | -81.00259 | 3951 ft | 225 kts | 245° |
| 2026-04-25 01:06 | 43.20571 | -81.02239 | 3955 ft | 228 kts | 245° |
| 2026-04-25 01:06 | 43.19956 | -81.04273 | 3958 ft | 230 kts | 245° |
| 2026-04-25 01:06 | 43.19347 | -81.06289 | 3961 ft | 231 kts | 245° |
| 2026-04-25 01:06 | 43.18726 | -81.08338 | 3960 ft | 232 kts | 245° |
| 2026-04-25 01:07 | 43.18108 | -81.10377 | 3959 ft | 234 kts | 245° |
| 2026-04-25 01:07 | 43.17484 | -81.12435 | 3955 ft | 234 kts | 246° |
| 2026-04-25 01:07 | 43.16859 | -81.14492 | 3953 ft | 235 kts | 246° |
| 2026-04-25 01:07 | 43.16231 | -81.16560 | 3948 ft | 235 kts | 246° |
| 2026-04-25 01:08 | 43.15604 | -81.18623 | 3946 ft | 235 kts | 246° |
| 2026-04-25 01:08 | 43.14975 | -81.20688 | 3952 ft | 235 kts | 246° |
| 2026-04-25 01:08 | 43.14344 | -81.22761 | 3953 ft | 235 kts | 246° |
| 2026-04-25 01:08 | 43.13728 | -81.24784 | 3854 ft | 226 kts | 246° |
| 2026-04-25 01:09 | 43.13138 | -81.26704 | 3555 ft | 214 kts | 245° |
| 2026-04-25 01:09 | 43.12574 | -81.28539 | 3237 ft | 205 kts | 245° |
| 2026-04-25 01:09 | 43.12037 | -81.30288 | 3060 ft | 189 kts | 244° |
| 2026-04-25 01:09 | 43.11558 | -81.31850 | 2986 ft | 167 kts | 244° |
| 2026-04-25 01:10 | 43.11142 | -81.33211 | 2927 ft | 140 kts | 244° |
| 2026-04-25 01:10 | 43.10780 | -81.34403 | 2948 ft | 141 kts | 244° |
| 2026-04-25 01:10 | 43.10386 | -81.35710 | 2957 ft | 153 kts | 244° |
| 2026-04-25 01:10 | 43.09962 | -81.37106 | 2960 ft | 167 kts | 244° |
| 2026-04-25 01:11 | 43.09495 | -81.38634 | 2957 ft | 180 kts | 245° |
| 2026-04-25 01:11 | 43.08841 | -81.40133 | 2945 ft | 187 kts | 219° |
| 2026-04-25 01:11 | 43.07633 | -81.40655 | 2953 ft | 189 kts | 176° |
| 2026-04-25 01:11 | 43.06326 | -81.40367 | 2945 ft | 191 kts | 168° |
| 2026-04-25 01:12 | 43.05036 | -81.40005 | 2974 ft | 187 kts | 168° |
| 2026-04-25 01:12 | 43.03759 | -81.39648 | 2955 ft | 189 kts | 168° |
| 2026-04-25 01:12 | 43.02476 | -81.39291 | 2940 ft | 188 kts | 167° |
| 2026-04-25 01:12 | 43.01331 | -81.38508 | 2918 ft | 184 kts | 133° |
| 2026-04-25 01:13 | 43.00959 | -81.36906 | 2931 ft | 178 kts | 91° |
| 2026-04-25 01:13 | 43.01117 | -81.35281 | 2926 ft | 169 kts | 84° |
| 2026-04-25 01:13 | 43.01320 | -81.33742 | 2923 ft | 158 kts | 83° |
| 2026-04-25 01:13 | 43.01517 | -81.32297 | 2882 ft | 153 kts | 83° |
| 2026-04-25 01:14 | 43.01717 | -81.30854 | 2767 ft | 153 kts | 82° |
| 2026-04-25 01:14 | 43.01917 | -81.29443 | 2644 ft | 151 kts | 82° |
| 2026-04-25 01:14 | 43.02119 | -81.28036 | 2517 ft | 150 kts | 82° |
| 2026-04-25 01:14 | 43.02317 | -81.26654 | 2356 ft | 151 kts | 82° |
| 2026-04-25 01:15 | 43.02523 | -81.25222 | 2168 ft | 154 kts | 81° |
| 2026-04-25 01:15 | 43.02729 | -81.23782 | 1967 ft | 154 kts | 81° |
| 2026-04-25 01:15 | 43.02928 | -81.22364 | 1761 ft | 153 kts | 80° |
| 2026-04-25 01:15 | 43.03129 | -81.20935 | 1553 ft | 150 kts | 80° |
| 2026-04-25 01:16 | 43.03325 | -81.19569 | 1347 ft | 141 kts | 79° |
| 2026-04-25 01:16 | 43.03507 | -81.18296 | 1160 ft | 134 kts | 79° |
| 2026-04-25 01:16 | 43.03682 | -81.17123 | 1005 ft | 116 kts | 78° |
| 2026-04-25 01:16 | 43.03820 | -81.16154 | 913 ft | 72 kts | 70° |
| 2026-04-25 01:17 | 43.03880 | -81.15939 | 913 ft | 15 kts | 27° |
| 2026-04-25 01:17 | 43.03986 | -81.16007 | 913 ft | 16 kts | 354° |
| 2026-04-25 01:17 | 43.04032 | -81.16009 | 913 ft | 0 kts | 2° |
| 2026-04-25 01:18 | 43.04073 | -81.16007 | 913 ft | 18 kts | 4° |
| 2026-04-25 01:18 | 43.04098 | -81.15853 | 916 ft | 29 kts | 133° |
| 2026-04-25 01:18 | 43.03950 | -81.15668 | 916 ft | 15 kts | 141° |
| 2026-04-25 01:19 | 43.03833 | -81.15527 | 916 ft | 33 kts | 136° |
| 2026-04-25 01:19 | 43.03670 | -81.15326 | 916 ft | 24 kts | 142° |
| 2026-04-25 01:19 | 43.03560 | -81.15251 | 914 ft | 17 kts | 246° |
| 2026-04-25 01:19 | 43.03491 | -81.15394 | 913 ft | 18 kts | 201° |
| 2026-04-25 01:20 | 43.03370 | -81.15288 | 910 ft | 25 kts | 139° |
| 2026-04-25 01:20 | 43.03259 | -81.15159 | 909 ft | 18 kts | 140° |
| 2026-04-25 01:20 | 43.03162 | -81.15042 | 907 ft | 22 kts | 141° |
| 2026-04-25 01:20 | 43.03034 | -81.14910 | 906 ft | 13 kts | 179° |
| 2026-04-25 01:21 | 43.02998 | -81.14910 | 906 ft | 7 kts | 195° |
| 2026-04-25 01:21 | 43.02956 | -81.14918 | 906 ft | 0 kts | 183° |
| 2026-04-25 01:38 | 43.02955 | -81.14918 | 906 ft | 0 kts | 182° |